createdAt,value
2018-09-16T00:02:53.656Z,99.90
2018-09-16T00:05:23.821Z,99.90
2018-09-16T00:07:52.485Z,99.90
2018-09-16T00:10:20.905Z,99.90
2018-09-16T00:12:49.702Z,99.90
2018-09-16T00:15:18.240Z,99.90
2018-09-16T00:17:46.692Z,99.90
2018-09-16T00:20:15.097Z,99.90
2018-09-16T00:22:43.484Z,99.90
2018-09-16T00:25:12.054Z,99.90
2018-09-16T00:27:40.443Z,99.90
2018-09-16T00:30:08.948Z,99.90
2018-09-16T00:32:43.369Z,99.90
2018-09-16T00:35:12.257Z,99.90
2018-09-16T00:37:40.670Z,99.90
2018-09-16T00:40:09.091Z,99.90
2018-09-16T00:42:37.574Z,99.90
2018-09-16T00:45:06.617Z,99.90
2018-09-16T00:47:35.232Z,99.90
2018-09-16T00:50:03.738Z,99.90
2018-09-16T00:52:32.154Z,99.90
2018-09-16T00:55:00.572Z,99.90
2018-09-16T00:57:28.976Z,99.90
2018-09-16T00:59:57.404Z,99.90
2018-09-16T01:02:25.800Z,99.90
2018-09-16T01:04:54.276Z,99.90
2018-09-16T01:07:22.677Z,99.90
2018-09-16T01:09:51.105Z,99.90
2018-09-16T01:12:19.604Z,99.90
2018-09-16T01:14:48.013Z,99.90
2018-09-16T01:17:16.428Z,99.90
2018-09-16T01:19:45.756Z,99.90
2018-09-16T01:22:14.212Z,99.90
2018-09-16T01:24:42.672Z,99.90
2018-09-16T01:27:11.168Z,99.90
2018-09-16T01:29:39.581Z,99.90
2018-09-16T01:32:08.021Z,99.90
2018-09-16T01:34:36.524Z,99.90
2018-09-16T01:37:09.157Z,99.90
2018-09-16T01:39:37.554Z,99.90
2018-09-16T01:42:06.051Z,99.90
2018-09-16T01:44:34.480Z,99.90
2018-09-16T01:47:02.924Z,99.90
2018-09-16T01:49:32.366Z,99.90
2018-09-16T01:52:00.826Z,99.90
2018-09-16T01:54:29.239Z,99.90
2018-09-16T01:56:57.655Z,99.90
2018-09-16T01:59:26.080Z,99.90
2018-09-16T02:01:54.480Z,99.90
2018-09-16T02:04:22.900Z,99.90
2018-09-16T02:06:51.417Z,99.90
2018-09-16T02:09:19.822Z,99.90
2018-09-16T02:11:48.246Z,99.90
2018-09-16T02:14:16.692Z,99.90
2018-09-16T02:16:45.163Z,99.90
2018-09-16T02:19:13.573Z,99.90
2018-09-16T02:21:42.073Z,99.90
2018-09-16T02:24:10.498Z,99.90
2018-09-16T02:26:38.898Z,99.90
2018-09-16T02:29:07.308Z,99.90
2018-09-16T02:31:35.780Z,99.90
2018-09-16T02:34:04.209Z,99.90
2018-09-16T02:36:32.605Z,99.90
2018-09-16T02:40:04.292Z,99.90
2018-09-16T02:42:32.702Z,99.90
2018-09-16T02:45:01.125Z,99.90
2018-09-16T02:47:29.856Z,99.90
2018-09-16T02:49:58.244Z,99.90
2018-09-16T02:52:26.647Z,99.90
2018-09-16T02:54:55.044Z,99.90
2018-09-16T02:57:23.457Z,99.90
2018-09-16T02:59:51.920Z,99.90
2018-09-16T03:02:20.341Z,99.90
2018-09-16T03:04:48.749Z,99.90
2018-09-16T03:14:21.172Z,99.90
2018-09-16T03:16:49.588Z,99.90
2018-09-16T03:19:18.049Z,99.90
2018-09-16T03:21:46.473Z,99.90
2018-09-16T03:24:15.043Z,99.90
2018-09-16T03:26:43.446Z,99.90
2018-09-16T03:29:11.865Z,99.90
2018-09-16T03:31:40.260Z,99.90
2018-09-16T03:34:08.685Z,99.90
2018-09-16T03:36:37.105Z,99.90
2018-09-16T03:39:08.117Z,99.90
2018-09-16T03:41:36.532Z,99.90
2018-09-16T03:44:04.996Z,99.90
2018-09-16T03:46:33.416Z,99.90
2018-09-16T03:49:01.891Z,99.90
2018-09-16T03:51:30.797Z,99.90
2018-09-16T03:53:59.190Z,99.90
2018-09-16T03:56:27.620Z,99.90
2018-09-16T03:58:56.028Z,99.90
2018-09-16T04:01:24.471Z,99.90
2018-09-16T04:03:52.867Z,99.90
2018-09-16T04:06:21.302Z,99.90
2018-09-16T04:08:49.744Z,99.90
2018-09-16T04:11:18.176Z,99.90
2018-09-16T04:13:46.743Z,99.90
2018-09-16T04:16:15.176Z,99.90
2018-09-16T04:18:43.588Z,99.90
2018-09-16T04:21:12.124Z,99.90
2018-09-16T04:23:44.723Z,99.90
2018-09-16T04:26:14.042Z,99.90
2018-09-16T04:28:42.709Z,99.90
2018-09-16T04:31:11.493Z,99.90
2018-09-16T04:33:40.552Z,99.90
2018-09-16T04:36:08.941Z,99.90
2018-09-16T04:38:37.474Z,99.90
2018-09-16T04:41:06.224Z,99.90
2018-09-16T04:43:34.647Z,99.90
2018-09-16T04:46:03.082Z,99.90
2018-09-16T04:48:31.484Z,99.90
2018-09-16T04:51:00.189Z,99.90
2018-09-16T04:53:28.612Z,99.90
2018-09-16T04:55:57.032Z,99.90
2018-09-16T04:58:25.444Z,99.90
2018-09-16T05:00:53.864Z,99.90
2018-09-16T05:03:22.369Z,99.90
2018-09-16T05:05:50.768Z,99.90
2018-09-16T05:08:19.178Z,99.90
2018-09-16T05:10:47.602Z,99.90
2018-09-16T05:13:16.037Z,99.90
2018-09-16T05:15:44.452Z,99.90
2018-09-16T05:18:12.852Z,99.90
2018-09-16T05:20:41.300Z,99.90
2018-09-16T05:23:09.745Z,99.90
2018-09-16T05:25:38.138Z,99.90
2018-09-16T05:28:06.541Z,99.90
2018-09-16T05:30:34.940Z,99.90
2018-09-16T05:33:03.345Z,99.90
2018-09-16T05:35:31.768Z,99.90
2018-09-16T05:38:00.205Z,99.90
2018-09-16T05:40:28.615Z,99.90
2018-09-16T05:42:57.024Z,99.90
2018-09-16T05:45:25.489Z,99.90
2018-09-16T05:47:53.905Z,99.90
2018-09-16T05:50:22.305Z,99.90
2018-09-16T05:52:50.814Z,99.90
2018-09-16T05:55:19.124Z,99.90
2018-09-16T05:57:47.576Z,99.90
2018-09-16T06:00:19.224Z,99.90
2018-09-16T06:02:48.513Z,99.90
2018-09-16T06:05:16.905Z,99.90
2018-09-16T06:07:45.353Z,99.90
2018-09-16T06:10:13.801Z,99.90
2018-09-16T06:12:42.210Z,99.90
2018-09-16T06:15:10.656Z,99.90
2018-09-16T06:17:39.058Z,99.90
2018-09-16T06:20:07.566Z,99.90
2018-09-16T06:22:35.981Z,99.90
2018-09-16T06:25:04.396Z,99.90
2018-09-16T06:27:32.803Z,99.90
2018-09-16T06:30:01.206Z,99.90
2018-09-16T06:32:29.616Z,99.90
2018-09-16T06:34:58.629Z,99.90
2018-09-16T06:37:27.239Z,99.90
2018-09-16T06:39:55.641Z,99.90
2018-09-16T06:42:24.059Z,99.90
2018-09-16T06:44:52.465Z,99.90
2018-09-16T06:47:20.873Z,99.90
2018-09-16T06:49:49.276Z,99.90
2018-09-16T06:52:17.705Z,99.90
2018-09-16T06:54:46.178Z,99.90
2018-09-16T06:57:14.593Z,99.90
2018-09-16T06:59:43.020Z,99.90
2018-09-16T07:02:11.433Z,99.90
2018-09-16T07:04:39.859Z,99.90
2018-09-16T07:07:08.272Z,99.90
2018-09-16T07:09:36.665Z,99.90
2018-09-16T07:12:05.089Z,99.90
2018-09-16T07:14:33.583Z,99.90
2018-09-16T07:17:01.904Z,99.90
2018-09-16T07:19:30.325Z,99.90
2018-09-16T07:21:58.740Z,99.90
2018-09-16T07:24:27.169Z,99.90
2018-09-16T07:26:55.614Z,99.90
2018-09-16T07:29:23.979Z,99.90
2018-09-16T07:31:52.384Z,99.90
2018-09-16T07:34:20.821Z,99.90
2018-09-16T07:36:49.233Z,99.90
2018-09-16T07:39:17.681Z,99.90
2018-09-16T07:41:46.070Z,99.90
2018-09-16T07:44:14.523Z,99.90
2018-09-16T07:46:42.948Z,99.90
2018-09-16T07:49:11.376Z,99.90
2018-09-16T07:51:39.808Z,99.90
2018-09-16T07:54:08.265Z,99.90
2018-09-16T07:56:36.682Z,99.90
2018-09-16T07:59:05.266Z,99.90
2018-09-16T08:01:33.800Z,99.90
2018-09-16T08:04:02.232Z,99.90
2018-09-16T08:06:30.633Z,99.90
2018-09-16T08:08:59.040Z,99.90
2018-09-16T08:11:27.547Z,99.90
2018-09-16T08:13:56.004Z,99.90
2018-09-16T08:16:24.428Z,99.90
2018-09-16T08:18:52.856Z,99.90
2018-09-16T08:21:21.341Z,99.90
2018-09-16T08:23:49.758Z,99.90
2018-09-16T08:26:18.149Z,99.90
2018-09-16T08:28:46.545Z,99.90
2018-09-16T08:31:14.964Z,99.90
2018-09-16T08:33:43.365Z,99.90
2018-09-16T08:36:11.780Z,99.90
2018-09-16T08:38:40.224Z,99.90
2018-09-16T08:41:08.657Z,99.90
2018-09-16T08:43:37.091Z,99.90
2018-09-16T08:46:05.585Z,99.90
2018-09-16T08:48:34.090Z,99.90
2018-09-16T08:51:02.504Z,99.90
2018-09-16T08:53:30.988Z,99.90
2018-09-16T08:55:59.465Z,99.90
2018-09-16T08:58:28.036Z,99.90
2018-09-16T09:00:56.396Z,99.90
2018-09-16T09:03:24.827Z,99.90
2018-09-16T09:05:53.261Z,99.90
2018-09-16T09:08:21.676Z,99.90
2018-09-16T09:10:50.121Z,99.90
2018-09-16T09:13:18.538Z,99.90
2018-09-16T09:15:46.965Z,99.90
2018-09-16T09:18:15.387Z,99.90
2018-09-16T09:20:43.893Z,99.90
2018-09-16T09:23:12.329Z,99.90
2018-09-16T09:25:41.237Z,99.90
2018-09-16T09:28:09.644Z,99.90
2018-09-16T09:30:38.045Z,99.90
2018-09-16T09:33:06.482Z,99.90
2018-09-16T09:35:35.034Z,99.90
2018-09-16T09:38:03.471Z,99.90
2018-09-16T09:40:31.900Z,99.90
2018-09-16T09:43:00.358Z,99.90
2018-09-16T09:45:28.793Z,99.90
2018-09-16T09:47:57.240Z,99.90
2018-09-16T09:50:25.671Z,99.90
2018-09-16T09:52:54.116Z,99.90
2018-09-16T09:55:22.568Z,99.90
2018-09-16T09:57:51.033Z,99.90
2018-09-16T10:00:23.721Z,99.90
2018-09-16T10:02:52.207Z,99.90
2018-09-16T10:05:20.682Z,99.90
2018-09-16T10:07:49.101Z,99.90
2018-09-16T10:10:17.561Z,99.90
2018-09-16T10:12:46.048Z,99.90
2018-09-16T10:15:14.473Z,99.90
2018-09-16T10:17:42.916Z,99.90
2018-09-16T10:20:11.372Z,99.90
2018-09-16T10:22:39.871Z,99.90
2018-09-16T10:25:08.326Z,99.90
2018-09-16T10:27:36.853Z,99.90
2018-09-16T10:30:05.361Z,99.90
2018-09-16T10:32:33.918Z,99.90
2018-09-16T10:35:02.440Z,99.90
2018-09-16T10:37:30.873Z,99.90
2018-09-16T10:39:59.300Z,99.90
2018-09-16T10:42:29.140Z,99.60
2018-09-16T10:44:57.626Z,99.30
2018-09-16T10:47:26.093Z,99.40
2018-09-16T10:49:54.507Z,99.60
2018-09-16T10:52:23.114Z,99.00
2018-09-16T10:54:51.637Z,98.40
2018-09-16T10:57:20.047Z,98.80
2018-09-16T10:59:48.648Z,97.70
2018-09-16T11:02:17.129Z,97.90
2018-09-16T11:04:45.601Z,97.80
2018-09-16T11:07:16.426Z,97.20
2018-09-16T11:09:46.502Z,97.40
2018-09-16T11:12:15.342Z,96.40
2018-09-16T11:14:44.415Z,96.70
2018-09-16T11:17:14.079Z,96.30
2018-09-16T11:19:43.316Z,96.10
2018-09-16T11:22:12.770Z,95.80
2018-09-16T11:31:40.907Z,95.20
2018-09-16T11:34:09.342Z,94.70
2018-09-16T11:36:37.844Z,94.40
2018-09-16T11:40:11.505Z,94.20
2018-09-16T11:42:40.621Z,93.80
2018-09-16T11:45:09.144Z,93.30
2018-09-16T11:47:37.634Z,93.20
2018-09-16T11:50:06.295Z,93.20
2018-09-16T11:52:34.772Z,93.20
2018-09-16T11:55:03.252Z,93.30
2018-09-16T11:57:31.734Z,93.20
2018-09-16T12:00:00.196Z,93.00
2018-09-16T12:02:28.740Z,93.10
2018-09-16T12:04:57.672Z,92.70
2018-09-16T12:07:26.216Z,93.80
2018-09-16T12:09:54.652Z,92.80
2018-09-16T12:12:23.145Z,92.00
2018-09-16T12:14:51.668Z,92.30
2018-09-16T12:17:20.246Z,92.40
2018-09-16T12:19:48.738Z,91.90
2018-09-16T12:22:17.950Z,91.50
2018-09-16T12:24:47.231Z,91.30
2018-09-16T12:27:15.717Z,91.50
2018-09-16T12:29:44.796Z,91.20
2018-09-16T12:32:13.262Z,91.90
2018-09-16T12:34:41.722Z,91.00
2018-09-16T12:37:10.220Z,90.30
2018-09-16T12:39:38.689Z,90.30
2018-09-16T12:42:07.200Z,90.90
2018-09-16T12:44:35.650Z,92.70
2018-09-16T12:47:04.171Z,90.90
2018-09-16T12:49:32.792Z,90.00
2018-09-16T12:52:01.344Z,90.20
2018-09-16T12:54:29.816Z,88.70
2018-09-16T12:56:58.411Z,88.50
2018-09-16T12:59:26.864Z,88.90
2018-09-16T13:01:55.348Z,87.90
2018-09-16T13:04:23.888Z,87.40
2018-09-16T13:06:52.314Z,86.60
2018-09-16T13:09:20.791Z,87.80
2018-09-16T13:11:49.263Z,87.70
2018-09-16T13:14:17.741Z,85.30
2018-09-16T13:16:46.269Z,85.40
2018-09-16T13:19:14.781Z,83.40
2018-09-16T13:21:43.308Z,82.10
2018-09-16T13:24:11.765Z,82.30
2018-09-16T13:26:40.279Z,82.60
2018-09-16T13:29:08.745Z,83.20
2018-09-16T13:31:37.301Z,81.90
2018-09-16T13:34:05.836Z,82.40
2018-09-16T13:36:34.284Z,82.20
2018-09-16T13:39:02.844Z,80.90
2018-09-16T13:41:31.359Z,80.00
2018-09-16T13:43:59.838Z,80.70
2018-09-16T13:46:28.347Z,80.60
2018-09-16T13:48:56.801Z,79.50
2018-09-16T13:51:25.298Z,75.50
2018-09-16T13:53:53.832Z,74.90
2018-09-16T13:56:22.401Z,73.20
2018-09-16T13:58:50.884Z,69.90
2018-09-16T14:01:19.340Z,69.50
2018-09-16T14:03:47.812Z,68.20
2018-09-16T14:06:16.313Z,65.90
2018-09-16T14:08:44.776Z,65.90
2018-09-16T14:11:13.276Z,68.50
2018-09-16T14:13:41.791Z,71.10
2018-09-16T14:16:10.304Z,68.80
2018-09-16T14:18:38.806Z,69.20
2018-09-16T14:21:07.601Z,70.80
2018-09-16T14:23:36.082Z,70.60
2018-09-16T14:26:04.565Z,72.30
2018-09-16T14:28:33.018Z,72.00
2018-09-16T14:31:01.496Z,72.10
2018-09-16T14:33:30.041Z,71.30
2018-09-16T14:35:58.603Z,70.60
2018-09-16T14:38:27.173Z,71.70
2018-09-16T14:40:55.772Z,72.10
2018-09-16T14:43:24.519Z,72.20
2018-09-16T14:45:53.137Z,73.00
2018-09-16T14:48:22.203Z,72.10
2018-09-16T14:50:51.492Z,72.60
2018-09-16T14:53:20.060Z,72.30
2018-09-16T14:55:48.759Z,73.20
2018-09-16T14:58:17.681Z,72.20
2018-09-16T15:00:47.116Z,72.20
2018-09-16T15:03:15.607Z,72.40
2018-09-16T15:05:45.106Z,73.30
2018-09-16T15:08:15.473Z,72.40
2018-09-16T15:10:44.532Z,72.30
2018-09-16T15:13:13.401Z,73.00
2018-09-16T15:15:41.896Z,73.30
2018-09-16T15:18:10.384Z,72.50
2018-09-16T15:20:38.938Z,73.20
2018-09-16T15:23:07.527Z,73.60
2018-09-16T15:25:36.257Z,74.00
2018-09-16T15:28:04.825Z,74.20
2018-09-16T15:30:33.657Z,74.00
2018-09-16T15:33:02.171Z,74.20
2018-09-16T15:35:30.636Z,74.60
2018-09-16T15:37:59.425Z,73.60
2018-09-16T15:40:28.073Z,74.80
2018-09-16T15:42:56.659Z,74.40
2018-09-16T15:45:25.160Z,74.80
2018-09-16T15:47:53.680Z,74.10
2018-09-16T15:50:22.144Z,74.00
2018-09-16T15:52:50.646Z,74.60
2018-09-16T15:55:19.201Z,76.30
2018-09-16T15:57:47.592Z,76.20
2018-09-16T16:00:16.137Z,75.70
2018-09-16T16:02:44.681Z,76.20
2018-09-16T16:05:13.172Z,75.70
2018-09-16T16:07:41.600Z,76.30
2018-09-16T16:10:10.168Z,76.90
2018-09-16T16:12:39.308Z,77.70
2018-09-16T16:15:07.815Z,77.10
2018-09-16T16:17:36.247Z,76.60
2018-09-16T16:20:04.842Z,77.70
2018-09-16T16:22:33.432Z,77.80
2018-09-16T16:25:01.904Z,77.10
2018-09-16T16:27:30.412Z,77.80
2018-09-16T16:29:58.859Z,78.20
2018-09-16T16:32:27.402Z,76.90
2018-09-16T16:34:55.872Z,78.50
2018-09-16T16:37:24.328Z,78.30
2018-09-16T16:39:52.809Z,78.90
2018-09-16T16:42:21.777Z,77.80
2018-09-16T16:44:50.295Z,77.90
2018-09-16T16:47:19.213Z,78.50
2018-09-16T16:49:47.742Z,78.50
2018-09-16T16:52:16.388Z,79.10
2018-09-16T16:54:44.801Z,79.20
2018-09-16T16:57:13.280Z,79.70
2018-09-16T16:59:41.807Z,79.30
2018-09-16T17:02:10.252Z,79.80
2018-09-16T17:04:39.188Z,79.20
2018-09-16T17:07:07.852Z,80.40
2018-09-16T17:09:36.334Z,80.10
2018-09-16T17:12:04.840Z,80.50
2018-09-16T17:14:33.415Z,80.60
2018-09-16T17:17:01.860Z,81.20
2018-09-16T17:19:30.372Z,81.10
2018-09-16T17:21:58.824Z,81.60
2018-09-16T17:24:27.321Z,82.00
2018-09-16T17:26:55.840Z,82.60
2018-09-16T17:29:24.301Z,83.40
2018-09-16T17:31:52.740Z,84.30
2018-09-16T17:34:21.236Z,84.20
2018-09-16T17:36:49.767Z,84.60
2018-09-16T17:39:18.188Z,85.20
2018-09-16T17:41:46.739Z,86.40
2018-09-16T17:44:15.319Z,86.50
2018-09-16T17:46:43.698Z,87.60
2018-09-16T17:49:12.124Z,87.90
2018-09-16T17:51:40.596Z,88.70
2018-09-16T17:54:09.162Z,89.10
2018-09-16T17:56:37.734Z,89.90
2018-09-16T17:59:06.168Z,90.20
2018-09-16T18:01:34.657Z,90.50
2018-09-16T18:04:03.120Z,90.60
2018-09-16T18:06:31.592Z,90.50
2018-09-16T18:09:00.144Z,90.90
2018-09-16T18:11:28.645Z,91.10
2018-09-16T18:13:57.205Z,91.30
2018-09-16T18:16:25.599Z,91.50
2018-09-16T18:18:54.105Z,91.80
2018-09-16T18:21:22.621Z,91.60
2018-09-16T18:23:51.073Z,92.10
2018-09-16T18:26:19.536Z,92.30
2018-09-16T18:28:48.268Z,92.40
2018-09-16T18:31:16.756Z,92.90
2018-09-16T18:33:45.203Z,93.00
2018-09-16T18:36:13.759Z,92.80
2018-09-16T18:38:42.277Z,92.90
2018-09-16T18:41:10.774Z,93.50
2018-09-16T18:43:39.249Z,93.40
2018-09-16T18:46:07.733Z,93.80
2018-09-16T18:48:36.289Z,94.70
2018-09-16T18:51:04.805Z,94.80
2018-09-16T18:53:33.274Z,94.60
2018-09-16T18:56:01.768Z,94.80
2018-09-16T18:58:30.246Z,95.00
2018-09-16T19:00:58.711Z,95.10
2018-09-16T19:03:27.245Z,95.10
2018-09-16T19:05:55.840Z,95.50
2018-09-16T19:08:24.434Z,95.90
2018-09-16T19:10:52.935Z,95.70
2018-09-16T19:13:21.546Z,95.90
2018-09-16T19:15:50.540Z,95.80
2018-09-16T19:18:19.037Z,95.70
2018-09-16T19:20:47.532Z,95.50
2018-09-16T19:23:15.968Z,95.10
2018-09-16T19:25:44.543Z,95.40
2018-09-16T19:28:12.925Z,95.40
2018-09-16T19:30:41.422Z,95.40
2018-09-16T19:33:09.923Z,95.20
2018-09-16T19:35:38.414Z,95.60
2018-09-16T19:38:06.866Z,95.60
2018-09-16T19:40:35.336Z,96.10
2018-09-16T19:43:03.808Z,96.30
2018-09-16T19:45:32.311Z,96.40
2018-09-16T19:48:00.850Z,96.50
2018-09-16T19:50:29.305Z,96.70
2018-09-16T19:52:57.764Z,96.90
2018-09-16T19:55:26.256Z,97.00
2018-09-16T19:57:54.889Z,97.20
2018-09-16T20:00:23.397Z,97.50
2018-09-16T20:02:51.877Z,97.80
2018-09-16T20:05:20.361Z,98.00
2018-09-16T20:07:48.864Z,98.50
2018-09-16T20:10:17.326Z,98.40
2018-09-16T20:12:45.825Z,98.70
2018-09-16T20:15:14.405Z,99.30
2018-09-16T20:17:42.934Z,99.20
2018-09-16T20:20:11.413Z,99.30
2018-09-16T20:22:39.845Z,99.30
2018-09-16T20:25:08.341Z,99.40
2018-09-16T20:27:36.852Z,99.20
2018-09-16T20:30:05.398Z,99.50
2018-09-16T20:32:33.856Z,99.60
2018-09-16T20:35:02.397Z,99.50
2018-09-16T20:37:30.840Z,99.40
2018-09-16T20:39:59.364Z,99.50
2018-09-16T20:42:27.802Z,99.80
2018-09-16T20:44:56.367Z,99.90
2018-09-16T20:47:24.893Z,99.90
2018-09-16T20:49:53.405Z,99.90
2018-09-16T20:52:21.860Z,99.90
2018-09-16T20:54:50.351Z,99.90
2018-09-16T20:57:18.796Z,99.90
2018-09-16T20:59:47.273Z,99.90
2018-09-16T21:02:15.728Z,99.90
2018-09-16T21:04:44.404Z,99.90
2018-09-16T21:07:12.924Z,99.90
2018-09-16T21:09:41.475Z,99.90
2018-09-16T21:12:09.994Z,99.90
2018-09-16T21:14:38.448Z,99.90
2018-09-16T21:17:06.957Z,99.90
2018-09-16T21:19:35.423Z,99.90
2018-09-16T21:22:03.952Z,99.90
2018-09-16T21:24:32.509Z,99.90
2018-09-16T21:27:01.023Z,99.90
2018-09-16T21:29:29.461Z,99.90
2018-09-16T21:31:57.961Z,99.90
2018-09-16T21:34:26.436Z,99.90
2018-09-16T21:36:54.988Z,99.90
2018-09-16T21:39:23.487Z,99.90
2018-09-16T21:41:51.977Z,99.90
2018-09-16T21:44:20.501Z,99.90
2018-09-16T21:46:49.040Z,99.90
2018-09-16T21:49:17.646Z,99.90
2018-09-16T21:51:46.101Z,99.90
2018-09-16T21:54:14.584Z,99.90
2018-09-16T21:56:43.072Z,99.90
2018-09-16T21:59:11.535Z,99.90
2018-09-16T22:01:40.017Z,99.90
2018-09-16T22:04:08.507Z,99.90
2018-09-16T22:06:36.971Z,99.90
2018-09-16T22:09:07.824Z,99.90
2018-09-16T22:11:36.309Z,99.90
2018-09-16T22:14:04.800Z,99.90
2018-09-16T22:16:33.324Z,99.90
2018-09-16T22:19:01.776Z,99.90
2018-09-16T22:21:30.221Z,99.90
2018-09-16T22:23:58.728Z,99.90
2018-09-16T22:26:27.208Z,99.90
2018-09-16T22:28:55.783Z,99.90
2018-09-16T22:31:24.270Z,99.90
2018-09-16T22:33:52.741Z,99.90
2018-09-16T22:36:21.229Z,99.90
2018-09-16T22:38:49.709Z,99.90
2018-09-16T22:41:18.184Z,99.90
2018-09-16T22:43:46.747Z,99.90
2018-09-16T22:46:15.272Z,99.90
2018-09-16T22:48:43.757Z,99.90
2018-09-16T22:51:12.240Z,99.90
2018-09-16T22:53:40.764Z,99.90
2018-09-16T22:56:09.872Z,99.90
2018-09-16T22:58:38.405Z,99.90
2018-09-16T23:01:07.773Z,99.90
2018-09-16T23:03:36.244Z,99.90
2018-09-16T23:06:04.794Z,99.90
2018-09-16T23:08:33.252Z,99.90
2018-09-16T23:11:01.720Z,99.90
2018-09-16T23:13:30.181Z,99.90
2018-09-16T23:15:58.684Z,99.90
2018-09-16T23:18:27.256Z,99.90
2018-09-16T23:20:55.865Z,99.90
2018-09-16T23:23:24.529Z,99.90
2018-09-16T23:25:53.135Z,99.90
2018-09-16T23:28:21.702Z,99.90
2018-09-16T23:30:50.372Z,99.90
2018-09-16T23:33:18.818Z,99.90
2018-09-16T23:35:47.260Z,99.90
2018-09-16T23:38:15.749Z,99.90
2018-09-16T23:40:44.765Z,99.90
2018-09-16T23:43:13.213Z,99.90
2018-09-16T23:45:41.697Z,99.90
2018-09-16T23:48:10.185Z,99.90
2018-09-16T23:50:38.637Z,99.90
2018-09-16T23:53:07.220Z,99.90
2018-09-16T23:55:35.753Z,99.90
2018-09-16T23:58:04.188Z,99.90
